createdAt,value
2023-05-13T00:00:03.668Z,15.44
2023-05-13T00:01:03.645Z,15.43
2023-05-13T00:02:03.627Z,15.50
2023-05-13T00:03:03.718Z,15.46
2023-05-13T00:04:03.604Z,15.46
2023-05-13T00:05:03.568Z,15.39
2023-05-13T00:06:03.592Z,15.38
2023-05-13T00:07:03.520Z,15.35
2023-05-13T00:08:03.497Z,15.28
2023-05-13T00:09:03.499Z,15.27
2023-05-13T00:10:03.459Z,15.32
2023-05-13T00:11:03.447Z,15.35
2023-05-13T00:12:03.410Z,15.34
2023-05-13T00:13:03.419Z,15.36
2023-05-13T00:14:03.372Z,15.31
2023-05-13T00:15:03.346Z,15.28
2023-05-13T00:16:03.414Z,15.31
2023-05-13T00:17:03.313Z,15.35
2023-05-13T00:18:03.391Z,15.25
2023-05-13T00:19:03.344Z,15.28
2023-05-13T00:20:03.240Z,15.23
2023-05-13T00:21:03.245Z,15.28
2023-05-13T00:22:03.198Z,15.32
2023-05-13T00:23:03.184Z,15.28
2023-05-13T00:24:03.158Z,15.27
2023-05-13T00:25:03.153Z,15.19
2023-05-13T00:26:03.113Z,15.16
2023-05-13T00:27:03.107Z,15.07
2023-05-13T00:28:03.087Z,15.14
2023-05-13T00:29:03.074Z,15.16
2023-05-13T00:30:03.031Z,15.11
2023-05-13T00:31:03.082Z,15.17
2023-05-13T00:32:03.012Z,15.21
2023-05-13T00:33:03.017Z,15.09
2023-05-13T00:34:02.938Z,15.19
2023-05-13T00:35:02.921Z,15.06
2023-05-13T00:36:02.898Z,15.02
2023-05-13T00:37:02.888Z,14.94
2023-05-13T00:38:02.856Z,14.88
2023-05-13T00:39:02.838Z,14.77
2023-05-13T00:40:02.813Z,14.75
2023-05-13T00:41:02.797Z,14.72
2023-05-13T00:42:02.768Z,14.73
2023-05-13T00:43:02.749Z,14.77
2023-05-13T00:44:02.718Z,14.64
2023-05-13T00:45:02.738Z,14.55
2023-05-13T00:46:02.782Z,14.61
2023-05-13T00:47:02.665Z,14.69
2023-05-13T00:48:02.715Z,14.68
2023-05-13T00:49:02.620Z,14.72
2023-05-13T00:50:02.603Z,14.52
2023-05-13T00:51:02.581Z,14.58
2023-05-13T00:52:02.560Z,14.61
2023-05-13T00:53:02.541Z,14.52
2023-05-13T00:54:02.510Z,14.62
2023-05-13T00:55:02.510Z,14.64
2023-05-13T00:56:02.473Z,14.70
2023-05-13T00:57:02.450Z,14.62
2023-05-13T00:58:02.427Z,14.64
2023-05-13T00:59:02.424Z,14.68
2023-05-13T01:00:02.412Z,14.60
2023-05-13T01:01:02.479Z,14.51
2023-05-13T01:02:02.418Z,14.54
2023-05-13T01:03:02.468Z,14.54
2023-05-13T01:04:02.319Z,14.45
2023-05-13T01:05:02.288Z,14.37
2023-05-13T01:06:02.271Z,14.27
2023-05-13T01:07:02.237Z,14.27
2023-05-13T01:08:02.212Z,14.22
2023-05-13T01:09:02.184Z,14.07
2023-05-13T01:10:02.167Z,14.02
2023-05-13T01:11:02.142Z,13.96
2023-05-13T01:12:02.120Z,13.85
2023-05-13T01:13:02.094Z,13.84
2023-05-13T01:14:02.076Z,13.85
2023-05-13T01:15:02.058Z,13.96
2023-05-13T01:16:02.030Z,13.95
2023-05-13T01:17:02.132Z,14.02
2023-05-13T01:18:02.008Z,14.02
2023-05-13T01:19:02.028Z,14.17
2023-05-13T01:20:01.943Z,14.18
2023-05-13T01:21:01.939Z,14.20
2023-05-13T01:22:01.898Z,14.18
2023-05-13T01:23:01.899Z,14.10
2023-05-13T01:24:01.903Z,14.09
2023-05-13T01:25:01.837Z,14.09
2023-05-13T01:26:01.820Z,13.97
2023-05-13T01:27:01.808Z,13.91
2023-05-13T01:28:01.807Z,13.81
2023-05-13T01:29:01.766Z,13.77
2023-05-13T01:30:01.723Z,13.63
2023-05-13T01:31:01.751Z,13.73
2023-05-13T01:32:01.683Z,13.66
2023-05-13T01:33:01.748Z,13.57
2023-05-13T01:34:01.633Z,13.64
2023-05-13T01:35:01.617Z,13.63
2023-05-13T01:36:01.594Z,13.51
2023-05-13T01:37:01.581Z,13.59
2023-05-13T01:38:01.544Z,13.44
2023-05-13T01:39:01.535Z,13.46
2023-05-13T01:40:02.186Z,13.44
2023-05-13T01:41:01.484Z,13.46
2023-05-13T01:42:01.472Z,13.62
2023-05-13T01:43:01.443Z,13.57
2023-05-13T01:44:01.415Z,13.57
2023-05-13T01:45:01.397Z,13.57
2023-05-13T01:46:01.437Z,13.57
2023-05-13T01:47:01.367Z,13.46
2023-05-13T01:48:01.386Z,13.62
2023-05-13T01:49:01.329Z,13.62
2023-05-13T01:50:01.284Z,13.55
2023-05-13T01:51:01.263Z,13.57
2023-05-13T01:52:01.234Z,13.54
2023-05-13T01:53:01.220Z,13.46
2023-05-13T01:54:01.193Z,13.46
2023-05-13T01:55:01.178Z,13.41
2023-05-13T01:56:01.157Z,13.33
2023-05-13T01:57:01.129Z,13.29
2023-05-13T01:58:01.135Z,13.28
2023-05-13T01:59:01.085Z,13.26
2023-05-13T02:00:01.066Z,13.29
2023-05-13T02:01:01.054Z,13.29
2023-05-13T02:02:01.052Z,13.32
2023-05-13T02:03:01.095Z,13.29
2023-05-13T02:04:00.996Z,13.29
2023-05-13T02:05:00.978Z,13.26
2023-05-13T02:06:00.948Z,13.20
2023-05-13T02:07:00.920Z,13.17
2023-05-13T02:08:00.898Z,13.19
2023-05-13T02:09:00.861Z,13.26
2023-05-13T02:10:00.836Z,13.28
2023-05-13T02:11:00.818Z,13.26
2023-05-13T02:12:00.792Z,13.39
2023-05-13T02:13:00.787Z,13.36
2023-05-13T02:14:00.756Z,13.28
2023-05-13T02:15:00.728Z,13.29
2023-05-13T02:16:00.760Z,13.36
2023-05-13T02:17:00.689Z,13.36
2023-05-13T02:18:00.684Z,13.29
2023-05-13T02:19:00.685Z,13.39
2023-05-13T02:20:00.626Z,13.36
2023-05-13T02:21:00.620Z,13.36
2023-05-13T02:22:00.579Z,13.15
2023-05-13T02:23:00.558Z,13.20
2023-05-13T02:24:00.536Z,13.17
2023-05-13T02:25:00.520Z,13.15
2023-05-13T02:26:00.490Z,13.10
2023-05-13T02:27:00.460Z,12.93
2023-05-13T02:28:00.460Z,12.82
2023-05-13T02:29:00.427Z,12.78
2023-05-13T02:30:00.443Z,12.79
2023-05-13T02:31:00.379Z,12.71
2023-05-13T02:32:00.375Z,12.60
2023-05-13T02:33:00.361Z,12.67
2023-05-13T02:34:00.310Z,12.59
2023-05-13T02:35:00.284Z,12.71
2023-05-13T02:36:00.261Z,12.67
2023-05-13T02:37:00.263Z,12.67
2023-05-13T02:38:00.218Z,12.71
2023-05-13T02:39:00.202Z,12.70
2023-05-13T02:40:00.225Z,12.62
2023-05-13T02:41:00.161Z,12.64
2023-05-13T02:42:00.128Z,12.65
2023-05-13T02:43:00.157Z,12.64
2023-05-13T02:44:00.109Z,12.60
2023-05-13T02:45:00.065Z,12.67
2023-05-13T02:46:00.100Z,12.68
2023-05-13T02:47:00.023Z,12.83
2023-05-13T02:48:00.061Z,12.75
2023-05-13T02:48:59.970Z,12.75
2023-05-13T02:49:59.960Z,12.82
2023-05-13T02:50:59.932Z,12.71
2023-05-13T02:51:59.915Z,12.74
2023-05-13T02:52:59.912Z,12.68
2023-05-13T02:53:59.870Z,12.68
2023-05-13T02:54:59.869Z,12.57
2023-05-13T02:55:59.819Z,12.56
2023-05-13T02:56:59.803Z,12.59
2023-05-13T02:57:59.771Z,12.52
2023-05-13T02:58:59.754Z,12.54
2023-05-13T02:59:59.728Z,12.62
2023-05-13T03:00:59.736Z,12.65
2023-05-13T03:01:59.685Z,12.60
2023-05-13T03:02:59.775Z,12.71
2023-05-13T03:03:59.640Z,12.68
2023-05-13T03:04:59.627Z,12.77
2023-05-13T03:05:59.593Z,12.68
2023-05-13T03:06:59.576Z,12.74
2023-05-13T03:07:59.561Z,12.77
2023-05-13T03:08:59.566Z,12.74
2023-05-13T03:09:59.507Z,12.78
2023-05-13T03:10:59.489Z,12.78
2023-05-13T03:11:59.472Z,12.86
2023-05-13T03:12:59.441Z,12.83
2023-05-13T03:13:59.416Z,12.79
2023-05-13T03:14:59.404Z,12.86
2023-05-13T03:15:59.501Z,12.85
2023-05-13T03:16:59.351Z,12.83
2023-05-13T03:17:59.369Z,12.82
2023-05-13T03:18:59.389Z,12.79
2023-05-13T03:19:59.292Z,12.71
2023-05-13T03:20:59.269Z,12.68
2023-05-13T03:21:59.238Z,12.53
2023-05-13T03:22:59.219Z,12.52
2023-05-13T03:23:59.191Z,12.47
2023-05-13T03:24:59.207Z,12.53
2023-05-13T03:25:59.153Z,12.49
2023-05-13T03:26:59.132Z,12.39
2023-05-13T03:27:59.113Z,12.38
2023-05-13T03:28:59.094Z,12.45
2023-05-13T03:29:59.055Z,12.50
2023-05-13T03:30:59.101Z,12.27
2023-05-13T03:31:59.014Z,12.24
2023-05-13T03:32:59.010Z,12.32
2023-05-13T03:33:58.989Z,12.34
2023-05-13T03:34:58.945Z,12.31
2023-05-13T03:35:58.923Z,12.41
2023-05-13T03:36:58.901Z,12.42
2023-05-13T03:37:58.881Z,12.56
2023-05-13T03:38:58.862Z,12.50
2023-05-13T03:39:58.830Z,12.64
2023-05-13T03:40:58.833Z,12.47
2023-05-13T03:41:58.786Z,12.56
2023-05-13T03:42:58.771Z,12.50
2023-05-13T03:43:58.742Z,12.49
2023-05-13T03:44:58.718Z,12.54
2023-05-13T03:45:58.694Z,12.37
2023-05-13T03:46:58.811Z,12.37
2023-05-13T03:47:58.709Z,12.41
2023-05-13T03:48:58.639Z,12.29
2023-05-13T03:49:58.610Z,12.45
2023-05-13T03:50:58.597Z,12.37
2023-05-13T03:51:58.561Z,12.38
2023-05-13T03:52:58.540Z,12.37
2023-05-13T03:53:58.514Z,12.42
2023-05-13T03:54:58.496Z,12.31
2023-05-13T03:55:58.475Z,12.31
2023-05-13T03:56:58.479Z,12.31
2023-05-13T03:57:58.427Z,12.34
2023-05-13T03:58:58.419Z,12.19
2023-05-13T03:59:58.382Z,12.20
2023-05-13T04:00:58.385Z,12.20
2023-05-13T04:01:58.395Z,12.17
2023-05-13T04:02:58.492Z,12.19
2023-05-13T04:03:58.331Z,12.05
2023-05-13T04:04:58.370Z,12.04
2023-05-13T04:05:58.256Z,11.96
2023-05-13T04:06:58.232Z,11.90
2023-05-13T04:07:58.223Z,11.95
2023-05-13T04:08:58.181Z,11.85
2023-05-13T04:09:58.156Z,11.91
2023-05-13T04:10:58.132Z,11.94
2023-05-13T04:11:58.113Z,11.88
2023-05-13T04:12:58.110Z,11.90
2023-05-13T04:13:58.069Z,11.98
2023-05-13T04:14:58.049Z,11.94
2023-05-13T04:15:58.032Z,11.88
2023-05-13T04:16:58.037Z,11.99
2023-05-13T04:17:58.019Z,12.01
2023-05-13T04:18:57.995Z,12.05
2023-05-13T04:19:57.952Z,11.95
2023-05-13T04:20:57.919Z,12.04
2023-05-13T04:21:57.892Z,12.04
2023-05-13T04:22:57.874Z,12.05
2023-05-13T04:23:57.836Z,12.10
2023-05-13T04:24:57.817Z,12.07
2023-05-13T04:25:57.796Z,12.14
2023-05-13T04:26:59.492Z,12.12
2023-05-13T04:27:57.752Z,12.13
2023-05-13T04:28:57.752Z,12.10
2023-05-13T04:29:57.709Z,12.14
2023-05-13T04:30:57.681Z,12.10
2023-05-13T04:31:57.713Z,12.05
2023-05-13T04:32:57.675Z,12.05
2023-05-13T04:33:57.613Z,12.13
2023-05-13T04:34:57.589Z,12.20
2023-05-13T04:35:57.577Z,12.12
2023-05-13T04:36:57.535Z,12.24
2023-05-13T04:37:57.520Z,12.19
2023-05-13T04:38:57.497Z,12.13
2023-05-13T04:39:57.493Z,12.17
2023-05-13T04:40:57.465Z,12.21
2023-05-13T04:41:57.439Z,12.20
2023-05-13T04:42:57.409Z,12.29
2023-05-13T04:43:57.389Z,12.39
2023-05-13T04:44:57.390Z,12.38
2023-05-13T04:45:57.398Z,12.47
2023-05-13T04:46:57.316Z,12.50
2023-05-13T04:47:58.549Z,12.56
2023-05-13T04:48:57.267Z,12.64
2023-05-13T04:49:57.249Z,12.75
2023-05-13T04:50:57.225Z,12.75
2023-05-13T04:51:57.209Z,12.86
2023-05-13T04:52:57.179Z,12.96
2023-05-13T04:53:57.166Z,13.01
2023-05-13T04:54:57.132Z,13.05
2023-05-13T04:55:57.140Z,13.14
2023-05-13T04:56:57.088Z,13.12
2023-05-13T04:57:57.073Z,13.08
2023-05-13T04:58:57.043Z,13.15
2023-05-13T04:59:57.022Z,13.12
2023-05-13T05:00:57.021Z,13.20
2023-05-13T05:01:56.996Z,13.23
2023-05-13T05:02:56.973Z,13.23
2023-05-13T05:03:56.976Z,13.23
2023-05-13T05:04:56.908Z,13.22
2023-05-13T05:05:56.898Z,13.25
2023-05-13T05:06:56.882Z,13.29
2023-05-13T05:07:56.841Z,13.41
2023-05-13T05:08:56.819Z,13.45
2023-05-13T05:09:56.800Z,13.46
2023-05-13T05:10:56.779Z,13.49
2023-05-13T05:11:56.755Z,13.49
2023-05-13T05:12:56.730Z,13.55
2023-05-13T05:13:56.716Z,13.54
2023-05-13T05:14:56.692Z,13.62
2023-05-13T05:15:56.667Z,13.54
2023-05-13T05:16:56.686Z,13.62
2023-05-13T05:17:56.696Z,13.62
2023-05-13T05:18:56.690Z,13.73
2023-05-13T05:19:56.580Z,13.70
2023-05-13T05:20:56.542Z,13.67
2023-05-13T05:21:56.530Z,13.64
2023-05-13T05:22:56.502Z,13.66
2023-05-13T05:23:56.492Z,13.67
2023-05-13T05:24:56.459Z,13.70
2023-05-13T05:26:07.883Z,13.70
2023-05-13T05:26:56.417Z,13.73
2023-05-13T05:27:56.398Z,13.78
2023-05-13T05:28:56.370Z,13.73
2023-05-13T05:29:56.359Z,13.69
2023-05-13T05:30:56.333Z,13.81
2023-05-13T05:31:56.436Z,13.82
2023-05-13T05:32:56.370Z,13.88
2023-05-13T05:33:56.296Z,13.92
2023-05-13T05:34:56.236Z,13.91
2023-05-13T05:35:56.216Z,14.02
2023-05-13T05:36:56.226Z,14.04
2023-05-13T05:37:56.170Z,14.00
2023-05-13T05:38:56.156Z,14.07
2023-05-13T05:39:56.126Z,14.12
2023-05-13T05:40:56.109Z,14.12
2023-05-13T05:41:56.092Z,14.21
2023-05-13T05:42:56.060Z,14.21
2023-05-13T05:43:56.037Z,14.22
2023-05-13T05:44:56.016Z,14.24
2023-05-13T05:45:56.026Z,14.29
2023-05-13T05:46:55.963Z,14.35
2023-05-13T05:47:55.975Z,14.40
2023-05-13T05:48:55.948Z,14.33
2023-05-13T05:49:55.912Z,14.39
2023-05-13T05:50:55.873Z,14.39
2023-05-13T05:51:55.854Z,14.35
2023-05-13T05:52:55.832Z,14.32
2023-05-13T05:53:55.810Z,14.37
2023-05-13T05:54:55.798Z,14.37
2023-05-13T05:55:55.779Z,14.40
2023-05-13T05:56:55.742Z,14.43
2023-05-13T05:57:55.723Z,14.45
2023-05-13T05:58:55.698Z,14.50
2023-05-13T05:59:55.679Z,14.45
2023-05-13T06:00:55.651Z,14.43
2023-05-13T06:01:55.646Z,14.52
2023-05-13T06:02:55.725Z,14.45
2023-05-13T06:03:55.631Z,14.58
2023-05-13T06:04:55.597Z,14.55
2023-05-13T06:05:55.550Z,14.50
2023-05-13T06:06:55.564Z,14.46
2023-05-13T06:07:55.511Z,14.42
2023-05-13T06:08:55.483Z,14.43
2023-05-13T06:09:55.458Z,14.42
2023-05-13T06:10:55.430Z,14.42
2023-05-13T06:11:55.423Z,14.45
2023-05-13T06:12:55.389Z,14.54
2023-05-13T06:13:55.382Z,14.54
2023-05-13T06:14:55.341Z,14.52
2023-05-13T06:15:55.379Z,14.45
2023-05-13T06:16:55.926Z,14.45
2023-05-13T06:17:55.314Z,14.51
2023-05-13T06:18:55.320Z,14.55
2023-05-13T06:19:55.231Z,14.61
2023-05-13T06:20:55.225Z,14.58
2023-05-13T06:21:55.203Z,14.61
2023-05-13T06:22:55.181Z,14.73
2023-05-13T06:23:55.153Z,14.68
2023-05-13T06:24:55.121Z,14.64
2023-05-13T06:25:55.105Z,14.77
2023-05-13T06:26:55.070Z,14.72
2023-05-13T06:27:55.072Z,14.75
2023-05-13T06:28:55.037Z,14.81
2023-05-13T06:29:55.007Z,14.86
2023-05-13T06:30:55.049Z,14.78
2023-05-13T06:31:54.970Z,14.88
2023-05-13T06:33:01.490Z,14.72
2023-05-13T06:33:54.927Z,14.89
2023-05-13T06:34:55.942Z,14.89
2023-05-13T06:35:54.892Z,14.86
2023-05-13T06:36:54.875Z,14.88
2023-05-13T06:37:54.833Z,15.03
2023-05-13T06:38:54.820Z,14.86
2023-05-13T06:39:54.801Z,14.91
2023-05-13T06:40:54.803Z,14.95
2023-05-13T06:41:54.755Z,14.95
2023-05-13T06:42:54.724Z,15.02
2023-05-13T06:43:54.711Z,15.10
2023-05-13T06:44:54.682Z,15.09
2023-05-13T06:45:54.665Z,15.13
2023-05-13T06:46:54.661Z,15.17
2023-05-13T06:47:54.638Z,15.25
2023-05-13T06:48:54.582Z,15.25
2023-05-13T06:49:54.568Z,15.32
2023-05-13T06:50:54.553Z,15.31
2023-05-13T06:51:54.536Z,15.35
2023-05-13T06:52:54.528Z,15.35
2023-05-13T06:53:54.483Z,15.47
2023-05-13T06:54:54.455Z,15.53
2023-05-13T06:55:54.435Z,15.41
2023-05-13T06:56:54.420Z,15.41
2023-05-13T06:57:54.413Z,15.47
2023-05-13T06:58:54.392Z,15.56
2023-05-13T06:59:54.352Z,15.56
2023-05-13T07:00:54.422Z,15.67
2023-05-13T07:01:54.307Z,15.64
2023-05-13T07:02:54.334Z,15.67
2023-05-13T07:03:54.332Z,15.71
2023-05-13T07:04:54.229Z,15.71
2023-05-13T07:05:54.237Z,15.76
2023-05-13T07:06:54.191Z,15.86
2023-05-13T07:07:54.170Z,15.76
2023-05-13T07:08:54.174Z,15.86
2023-05-13T07:09:54.123Z,15.86
2023-05-13T07:10:54.098Z,15.82
2023-05-13T07:11:54.091Z,15.89
2023-05-13T07:12:54.050Z,15.94
2023-05-13T07:13:54.038Z,16.01
2023-05-13T07:14:54.015Z,16.04
2023-05-13T07:15:53.999Z,16.07
2023-05-13T07:16:54.019Z,16.09
2023-05-13T07:17:53.976Z,16.14
2023-05-13T07:18:53.972Z,16.23
2023-05-13T07:19:53.912Z,16.25
2023-05-13T07:20:53.885Z,16.33
2023-05-13T07:21:53.870Z,16.35
2023-05-13T07:22:53.839Z,16.48
2023-05-13T07:23:53.825Z,16.49
2023-05-13T07:24:53.827Z,16.48
2023-05-13T07:25:53.787Z,16.60
2023-05-13T07:26:53.755Z,16.61
2023-05-13T07:27:53.738Z,16.71
2023-05-13T07:28:53.704Z,16.79
2023-05-13T07:29:53.689Z,16.75
2023-05-13T07:30:53.729Z,16.71
2023-05-13T07:31:53.646Z,16.81
2023-05-13T07:32:54.199Z,16.75
2023-05-13T07:33:53.604Z,16.91
2023-05-13T07:34:53.581Z,17.00
2023-05-13T07:35:53.577Z,16.98
2023-05-13T07:36:53.534Z,17.04
2023-05-13T07:37:53.516Z,17.14
2023-05-13T07:38:53.511Z,17.16
2023-05-13T07:39:53.488Z,17.19
2023-05-13T07:40:53.474Z,17.22
2023-05-13T07:41:53.427Z,17.36
2023-05-13T07:42:53.409Z,17.38
2023-05-13T07:43:53.390Z,17.44
2023-05-13T07:44:53.374Z,17.51
2023-05-13T07:45:53.357Z,17.34
2023-05-13T07:46:53.432Z,17.40
2023-05-13T07:47:53.314Z,17.48
2023-05-13T07:48:53.277Z,17.46
2023-05-13T07:49:53.272Z,17.54
2023-05-13T07:50:53.238Z,17.59
2023-05-13T07:51:53.223Z,17.62
2023-05-13T07:52:53.197Z,17.59
2023-05-13T07:53:53.181Z,17.41
2023-05-13T07:54:53.152Z,17.41
2023-05-13T07:55:53.137Z,17.58
2023-05-13T07:56:53.136Z,17.59
2023-05-13T07:57:53.091Z,17.66
2023-05-13T07:58:53.075Z,17.72
2023-05-13T07:59:53.056Z,17.77
2023-05-13T08:00:53.034Z,17.86
2023-05-13T08:01:53.006Z,17.79
2023-05-13T08:02:53.135Z,17.82
2023-05-13T08:03:53.157Z,17.96
2023-05-13T08:04:53.070Z,18.07
2023-05-13T08:05:52.928Z,18.07
2023-05-13T08:06:52.925Z,18.17
2023-05-13T08:07:52.885Z,18.27
2023-05-13T08:08:52.894Z,18.36
2023-05-13T08:09:52.847Z,18.42
2023-05-13T08:10:52.818Z,18.55
2023-05-13T08:11:52.795Z,18.60
2023-05-13T08:12:52.796Z,18.52
2023-05-13T08:13:52.763Z,18.50
2023-05-13T08:14:52.732Z,18.45
2023-05-13T08:15:52.767Z,18.48
2023-05-13T08:16:52.820Z,18.51
2023-05-13T08:17:52.720Z,18.37
2023-05-13T08:18:52.678Z,18.37
2023-05-13T08:19:52.625Z,18.44
2023-05-13T08:20:52.623Z,18.63
2023-05-13T08:21:52.591Z,18.62
2023-05-13T08:22:52.571Z,18.62
2023-05-13T08:23:52.555Z,18.65
2023-05-13T08:24:52.529Z,18.66
2023-05-13T08:25:52.515Z,18.69
2023-05-13T08:26:52.489Z,18.78
2023-05-13T08:27:52.485Z,18.87
2023-05-13T08:28:54.766Z,18.95
2023-05-13T08:29:52.421Z,18.88
2023-05-13T08:30:52.405Z,18.88
2023-05-13T08:31:52.431Z,19.00
2023-05-13T08:32:52.388Z,18.99
2023-05-13T08:33:52.337Z,19.07
2023-05-13T08:34:52.329Z,19.04
2023-05-13T08:35:52.305Z,19.10
2023-05-13T08:36:52.288Z,19.08
2023-05-13T08:37:52.258Z,19.06
2023-05-13T08:38:52.252Z,19.18
2023-05-13T08:39:52.225Z,19.23
2023-05-13T08:40:52.203Z,19.31
2023-05-13T08:41:52.190Z,19.29
2023-05-13T08:42:52.164Z,19.40
2023-05-13T08:43:52.186Z,19.32
2023-05-13T08:44:52.166Z,19.41
2023-05-13T08:45:52.129Z,19.58
2023-05-13T08:46:52.086Z,19.66
2023-05-13T08:47:52.099Z,19.63
2023-05-13T08:48:52.053Z,19.62
2023-05-13T08:49:52.024Z,19.62
2023-05-13T08:50:52.002Z,19.65
2023-05-13T08:51:51.980Z,19.55
2023-05-13T08:52:51.967Z,19.55
2023-05-13T08:53:51.943Z,19.51
2023-05-13T08:54:51.926Z,19.58
2023-05-13T08:55:51.908Z,19.65
2023-05-13T08:56:51.899Z,19.78
2023-05-13T08:57:51.861Z,19.92
2023-05-13T08:58:51.854Z,20.02
2023-05-13T08:59:51.813Z,20.17
2023-05-13T09:00:52.000Z,20.11
2023-05-13T09:01:51.840Z,20.20
2023-05-13T09:02:51.776Z,20.24
2023-05-13T09:03:51.744Z,20.32
2023-05-13T09:04:51.735Z,20.32
2023-05-13T09:05:51.697Z,20.31
2023-05-13T09:06:51.684Z,20.39
2023-05-13T09:07:51.771Z,20.43
2023-05-13T09:08:51.647Z,20.55
2023-05-13T09:09:51.635Z,20.61
2023-05-13T09:10:51.715Z,20.66
2023-05-13T09:11:51.595Z,20.52
2023-05-13T09:12:51.649Z,20.33
2023-05-13T09:13:51.544Z,20.48
2023-05-13T09:14:51.526Z,20.55
2023-05-13T09:15:51.517Z,20.57
2023-05-13T09:16:51.513Z,20.59
2023-05-13T09:17:51.580Z,20.61
2023-05-13T09:18:51.548Z,20.69
2023-05-13T09:19:51.484Z,20.74
2023-05-13T09:20:51.408Z,20.74
2023-05-13T09:21:51.384Z,20.84
2023-05-13T09:22:51.417Z,20.76
2023-05-13T09:23:51.340Z,20.69
2023-05-13T09:24:51.323Z,20.69
2023-05-13T09:25:51.304Z,20.66
2023-05-13T09:26:51.309Z,20.72
2023-05-13T09:27:51.290Z,20.74
2023-05-13T09:28:51.252Z,20.80
2023-05-13T09:29:51.219Z,20.80
2023-05-13T09:30:51.239Z,20.91
2023-05-13T09:31:51.188Z,20.97
2023-05-13T09:32:51.260Z,21.04
2023-05-13T09:33:51.145Z,21.01
2023-05-13T09:34:51.134Z,20.95
2023-05-13T09:35:51.119Z,20.91
2023-05-13T09:36:51.300Z,20.89
2023-05-13T09:37:51.062Z,20.98
2023-05-13T09:38:51.057Z,20.97
2023-05-13T09:39:51.032Z,21.04
2023-05-13T09:40:51.016Z,21.10
2023-05-13T09:41:50.996Z,21.22
2023-05-13T09:42:50.977Z,21.24
2023-05-13T09:43:50.947Z,21.24
2023-05-13T09:44:50.935Z,21.27
2023-05-13T09:45:50.913Z,21.25
2023-05-13T09:46:50.915Z,21.28
2023-05-13T09:47:50.923Z,21.34
2023-05-13T09:48:50.873Z,21.29
2023-05-13T09:49:50.838Z,21.31
2023-05-13T09:50:50.816Z,21.29
2023-05-13T09:51:50.793Z,21.24
2023-05-13T09:52:50.777Z,21.14
2023-05-13T09:53:50.759Z,21.13
2023-05-13T09:54:50.741Z,21.06
2023-05-13T09:55:50.724Z,21.22
2023-05-13T09:56:50.701Z,21.28
2023-05-13T09:57:50.680Z,21.27
2023-05-13T09:58:50.704Z,21.28
2023-05-13T09:59:50.638Z,21.28
2023-05-13T10:00:50.705Z,21.22
2023-05-13T10:01:50.712Z,21.27
2023-05-13T10:02:50.610Z,21.22
2023-05-13T10:03:50.629Z,21.27
2023-05-13T10:04:50.567Z,21.40
2023-05-13T10:05:50.528Z,21.40
2023-05-13T10:06:50.509Z,21.40
2023-05-13T10:07:50.495Z,21.40
2023-05-13T10:08:50.482Z,21.32
2023-05-13T10:09:50.451Z,21.42
2023-05-13T10:10:50.440Z,21.40
2023-05-13T10:11:50.413Z,21.52
2023-05-13T10:12:50.399Z,21.58
2023-05-13T10:13:50.371Z,21.62
2023-05-13T10:14:50.365Z,21.59
2023-05-13T10:15:50.399Z,21.61
2023-05-13T10:16:50.358Z,21.69
2023-05-13T10:17:50.320Z,21.58
2023-05-13T10:18:50.299Z,21.59
2023-05-13T10:19:50.257Z,21.53
2023-05-13T10:20:50.260Z,21.58
2023-05-13T10:21:50.221Z,21.50
2023-05-13T10:22:50.202Z,21.54
2023-05-13T10:23:50.190Z,21.61
2023-05-13T10:24:50.176Z,21.79
2023-05-13T10:25:50.148Z,21.91
2023-05-13T10:26:50.133Z,21.86
2023-05-13T10:27:50.111Z,21.84
2023-05-13T10:28:50.099Z,21.88
2023-05-13T10:29:50.065Z,21.99
2023-05-13T10:30:50.055Z,21.90
2023-05-13T10:31:50.053Z,21.84
2023-05-13T10:32:50.040Z,21.83
2023-05-13T10:33:49.993Z,21.96
2023-05-13T10:34:49.969Z,21.90
2023-05-13T10:35:49.950Z,21.88
2023-05-13T10:36:49.965Z,21.98
2023-05-13T10:37:49.912Z,21.99
2023-05-13T10:38:49.905Z,22.03
2023-05-13T10:39:49.877Z,22.05
2023-05-13T10:40:49.859Z,21.90
2023-05-13T10:41:49.849Z,21.94
2023-05-13T10:42:49.816Z,21.90
2023-05-13T10:43:49.798Z,21.98
2023-05-13T10:44:49.781Z,21.84
2023-05-13T10:45:49.805Z,21.84
2023-05-13T10:46:49.841Z,21.94
2023-05-13T10:47:49.787Z,21.84
2023-05-13T10:48:49.755Z,21.94
2023-05-13T10:49:49.689Z,22.00
2023-05-13T10:50:49.669Z,22.00
2023-05-13T10:51:49.653Z,22.00
2023-05-13T10:52:49.656Z,22.03
2023-05-13T10:53:49.615Z,22.21
2023-05-13T10:54:49.590Z,22.18
2023-05-13T10:55:49.571Z,22.12
2023-05-13T10:56:49.561Z,22.02
2023-05-13T10:57:49.543Z,22.05
2023-05-13T10:58:49.541Z,22.10
2023-05-13T10:59:49.506Z,22.15
2023-05-13T11:00:49.484Z,22.12
2023-05-13T11:01:49.618Z,22.18
2023-05-13T11:02:49.508Z,22.18
2023-05-13T11:03:49.535Z,22.21
2023-05-13T11:04:49.410Z,22.18
2023-05-13T11:05:49.380Z,22.22
2023-05-13T11:06:49.375Z,22.31
2023-05-13T11:07:49.347Z,22.35
2023-05-13T11:08:49.343Z,22.39
2023-05-13T11:09:49.311Z,22.43
2023-05-13T11:10:49.300Z,22.52
2023-05-13T11:11:49.274Z,22.39
2023-05-13T11:12:49.263Z,22.43
2023-05-13T11:13:49.256Z,22.52
2023-05-13T11:14:49.220Z,22.52
2023-05-13T11:15:49.244Z,22.40
2023-05-13T11:16:49.184Z,22.54
2023-05-13T11:17:49.191Z,22.58
2023-05-13T11:18:49.260Z,22.62
2023-05-13T11:19:49.129Z,22.60
2023-05-13T11:20:52.586Z,22.62
2023-05-13T11:21:49.088Z,22.51
2023-05-13T11:22:49.072Z,22.54
2023-05-13T11:23:49.049Z,22.62
2023-05-13T11:24:49.063Z,22.57
2023-05-13T11:25:49.020Z,22.67
2023-05-13T11:26:49.011Z,22.73
2023-05-13T11:27:48.992Z,22.70
2023-05-13T11:28:48.961Z,22.64
2023-05-13T11:29:48.935Z,22.67
2023-05-13T11:30:48.991Z,22.64
2023-05-13T11:31:48.947Z,22.67
2023-05-13T11:32:48.939Z,22.62
2023-05-13T11:33:48.866Z,22.65
2023-05-13T11:34:48.846Z,22.68
2023-05-13T11:35:48.831Z,22.57
2023-05-13T11:36:48.824Z,22.58
2023-05-13T11:37:48.792Z,22.62
2023-05-13T11:38:48.778Z,22.65
2023-05-13T11:39:48.754Z,22.62
2023-05-13T11:40:48.792Z,22.57
2023-05-13T11:41:48.717Z,22.75
2023-05-13T11:42:48.717Z,22.91
2023-05-13T11:43:48.684Z,22.85
2023-05-13T11:44:48.664Z,22.91
2023-05-13T11:45:48.675Z,22.83
2023-05-13T11:46:48.634Z,22.86
2023-05-13T11:47:48.681Z,22.98
2023-05-13T11:48:48.591Z,22.97
2023-05-13T11:49:48.575Z,22.91
2023-05-13T11:50:48.602Z,23.00
2023-05-13T11:51:48.533Z,23.00
2023-05-13T11:52:48.525Z,22.83
2023-05-13T11:53:48.499Z,22.86
2023-05-13T11:54:48.703Z,22.97
2023-05-13T11:55:48.470Z,23.05
2023-05-13T11:56:48.474Z,23.13
2023-05-13T11:57:48.437Z,23.02
2023-05-13T11:58:48.416Z,23.04
2023-05-13T11:59:48.610Z,23.07
2023-05-13T12:00:48.403Z,23.02
2023-05-13T12:01:48.392Z,23.00
2023-05-13T12:02:48.370Z,22.91
2023-05-13T12:03:48.323Z,22.90
2023-05-13T12:04:48.320Z,22.91
2023-05-13T12:05:48.320Z,23.00
2023-05-13T12:06:48.273Z,23.04
2023-05-13T12:07:48.249Z,23.07
2023-05-13T12:08:48.231Z,23.20
2023-05-13T12:09:48.214Z,23.19
2023-05-13T12:10:48.218Z,23.19
2023-05-13T12:11:48.182Z,23.04
2023-05-13T12:12:48.199Z,23.02
2023-05-13T12:13:48.130Z,22.98
2023-05-13T12:14:48.126Z,22.91
2023-05-13T12:15:48.119Z,22.83
2023-05-13T12:16:48.091Z,22.68
2023-05-13T12:17:48.126Z,22.65
2023-05-13T12:18:48.076Z,22.75
2023-05-13T12:19:48.031Z,22.76
2023-05-13T12:20:48.011Z,22.80
2023-05-13T12:21:48.000Z,22.90
2023-05-13T12:22:47.989Z,22.86
2023-05-13T12:23:47.964Z,22.80
2023-05-13T12:24:47.939Z,22.98
2023-05-13T12:25:47.986Z,22.95
2023-05-13T12:26:47.899Z,22.98
2023-05-13T12:27:47.885Z,23.04
2023-05-13T12:28:47.896Z,23.04
2023-05-13T12:29:47.856Z,23.12
2023-05-13T12:30:47.843Z,23.38
2023-05-13T12:31:47.900Z,23.22
2023-05-13T12:32:47.827Z,23.23
2023-05-13T12:33:47.778Z,23.22
2023-05-13T12:34:47.755Z,23.16
2023-05-13T12:35:47.745Z,23.19
2023-05-13T12:36:47.766Z,23.12
2023-05-13T12:37:47.725Z,23.17
2023-05-13T12:38:47.684Z,23.02
2023-05-13T12:39:47.667Z,23.01
2023-05-13T12:40:47.753Z,23.19
2023-05-13T12:41:47.633Z,23.15
2023-05-13T12:42:47.613Z,23.19
2023-05-13T12:43:47.597Z,23.22
2023-05-13T12:44:47.607Z,23.23
2023-05-13T12:45:47.558Z,23.25
2023-05-13T12:46:47.583Z,23.23
2023-05-13T12:47:47.547Z,23.19
2023-05-13T12:48:47.520Z,23.13
2023-05-13T12:49:47.500Z,23.16
2023-05-13T12:50:47.470Z,23.19
2023-05-13T12:51:47.448Z,23.33